KGMU

Greenville Downtown Airport

Greenville, South Carolina, USA
METAR KGMU 231153Z 00000KT 10SM CLR 07/06 A3021 RMK AO2 SLP229 T00720056 10094 20067 56001
Observed Flight Rules
Oct-23 @ 11:53 UTC (16 minutes ago) Visual Flight Rules
Visibility Clouds
10 miles
  • Clear skies
Temperatures Readings
Current 7°C / 45°F
Dewpoint 6°C / 43°F
Humidity 93%
Altimeter 30.21" Hg
Pressure 1022.9 hPa
Elevation 315
METAR KGMU 231153Z 00000KT 10SM CLR 07/06 A3021 RMK AO2 SLP229 T00720056 10094 20067 56001
Observed Flight Rules
Oct-23 @ 11:53 UTC
(16 minutes ago)
VFR
Clouds
  • Clear skies
Temperature Dewpoint
7°C / 45°F 6°C / 43°F
Humidity Altimeter Pressure
93% 30.21" Hg 1022.9 hPa